Time;durP1;ratioP1;P1;durP2;ratioP2;P2;SDS_P1;SDS_P2;PMS_P1;PMS_P2;Temp;Humidity;BMP_temperature;BMP_pressure;BME280_temperature;BME280_humidity;BME280_pressure;Samples;Min_cycle;Max_cycle;Signal;HPM_P1;HPM_P2
2023/04/28 00:01:41;;;;;;;13.30;7.20;;;;;;;;;;5010642;28;20093;-76
2023/04/28 00:04:06;;;;;;;14.15;7.55;;;;;;;;;;4995749;28;20022;-76
2023/04/28 00:06:32;;;;;;;12.63;6.32;;;;;;;;;;4995355;28;20401;-77
2023/04/28 00:08:57;;;;;;;9.37;6.23;;;;;;;;;;4995400;28;20092;-78
2023/04/28 00:11:22;;;;;;;11.18;6.45;;;;;;;;;;4995095;28;20260;-76
2023/04/28 00:13:47;;;;;;;10.33;6.70;;;;;;;;;;4995583;28;20508;-76
2023/04/28 00:16:12;;;;;;;11.17;6.10;;;;;;;;;;4995077;28;20763;-77
2023/04/28 00:18:38;;;;;;;13.95;6.05;;;;;;;;;;4995229;28;20821;-75
2023/04/28 00:21:03;;;;;;;9.98;6.03;;;;;;;;;;4995294;28;20479;-76
2023/04/28 00:23:28;;;;;;;14.32;5.47;;;;;;;;;;4994972;28;20482;-76
2023/04/28 00:25:55;;;;;;;12.70;5.95;;;;;;;;;;4995021;28;20486;-76
2023/04/28 00:28:20;;;;;;;8.95;5.40;;;;;;;;;;4995143;28;20401;-77
2023/04/28 00:30:46;;;;;;;8.70;5.53;;;;;;;;;;4994672;28;20030;-77
2023/04/28 00:33:12;;;;;;;6.90;5.43;;;;;;;;;;4994809;28;20048;-77
2023/04/28 00:35:38;;;;;;;9.65;5.22;;;;;;;;;;4993547;28;20034;-77
2023/04/28 00:38:03;;;;;;;10.00;6.00;;;;;;;;;;4993698;28;20027;-76
2023/04/28 00:40:32;;;;;;;9.40;5.55;;;;;;;;;;4995151;28;20109;-77
2023/04/28 00:42:58;;;;;;;8.85;5.53;;;;;;;;;;5010899;28;20026;-77
2023/04/28 00:45:23;;;;;;;8.82;5.32;;;;;;;;;;4994682;28;20030;-76
2023/04/28 00:47:48;;;;;;;9.70;6.03;;;;;;;;;;5009989;28;20061;-78
2023/04/28 00:50:15;;;;;;;10.23;5.65;;;;;;;;;;4994902;28;20256;-77
2023/04/28 00:52:41;;;;;;;8.02;5.28;;;;;;;;;;4994435;28;20030;-77
2023/04/28 00:55:08;;;;;;;7.97;5.32;;;;;;;;;;4993541;28;20096;-77
2023/04/28 00:57:34;;;;;;;7.85;5.68;;;;;;;;;;4993609;28;20029;-76
2023/04/28 00:59:59;;;;;;;11.35;5.70;;;;;;;;;;4994923;28;20101;-78
2023/04/28 01:02:25;;;;;;;8.90;5.53;;;;;;;;;;4994880;28;20110;-77
2023/04/28 01:04:51;;;;;;;10.18;5.50;;;;;;;;;;4994569;28;20528;-76
2023/04/28 01:07:16;;;;;;;12.02;5.38;;;;;;;;;;4994813;28;20053;-75
2023/04/28 01:09:42;;;;;;;7.60;5.30;;;;;;;;;;4994405;28;20422;-76
2023/04/28 01:12:08;;;;;;;9.43;5.50;;;;;;;;;;5009389;28;20256;-77
2023/04/28 01:14:33;;;;;;;10.88;5.72;;;;;;;;;;4994157;28;20053;-76
2023/04/28 01:16:59;;;;;;;9.88;5.55;;;;;;;;;;4993742;28;20116;-76
2023/04/28 01:19:24;;;;;;;9.60;5.40;;;;;;;;;;4994175;28;20030;-75
2023/04/28 01:21:49;;;;;;;8.30;5.65;;;;;;;;;;4993823;28;20069;-76
2023/04/28 01:24:16;;;;;;;10.32;5.22;;;;;;;;;;4997614;28;20081;-76
2023/04/28 01:26:41;;;;;;;10.60;5.35;;;;;;;;;;4997700;28;20054;-75
2023/04/28 01:29:06;;;;;;;7.50;5.35;;;;;;;;;;4997904;28;20061;-76
2023/04/28 01:31:31;;;;;;;10.30;5.57;;;;;;;;;;5012805;28;20541;-76
2023/04/28 01:33:57;;;;;;;8.38;5.03;;;;;;;;;;4998075;28;20041;-75
2023/04/28 01:36:22;;;;;;;11.48;5.75;;;;;;;;;;4997570;28;20046;-75
2023/04/28 01:38:48;;;;;;;8.23;5.25;;;;;;;;;;4996529;28;20088;-76
2023/04/28 01:41:13;;;;;;;7.97;4.90;;;;;;;;;;4998220;28;20133;-75
2023/04/28 01:43:39;;;;;;;10.20;4.85;;;;;;;;;;4997774;28;20030;-75
2023/04/28 01:46:04;;;;;;;8.43;5.53;;;;;;;;;;4997825;28;20154;-76
2023/04/28 01:48:30;;;;;;;7.60;5.13;;;;;;;;;;4997767;28;20065;-77
2023/04/28 01:50:55;;;;;;;9.88;4.93;;;;;;;;;;4997695;28;20022;-77
2023/04/28 01:53:20;;;;;;;8.73;5.50;;;;;;;;;;4997534;28;20033;-76
2023/04/28 01:55:46;;;;;;;8.23;4.82;;;;;;;;;;4997134;28;20037;-76
2023/04/28 01:58:11;;;;;;;7.25;4.95;;;;;;;;;;4997182;28;20069;-75
2023/04/28 02:00:37;;;;;;;8.20;5.32;;;;;;;;;;4996919;28;20030;-76
2023/04/28 02:03:02;;;;;;;9.57;5.30;;;;;;;;;;4996825;28;20556;-75
2023/04/28 02:05:27;;;;;;;11.48;5.40;;;;;;;;;;4997170;28;20393;-77
2023/04/28 02:07:52;;;;;;;11.73;5.50;;;;;;;;;;4997161;28;20038;-76
2023/04/28 02:10:17;;;;;;;9.77;5.60;;;;;;;;;;4997006;28;20113;-76
2023/04/28 02:12:43;;;;;;;7.30;5.07;;;;;;;;;;4997412;28;20295;-77
2023/04/28 02:15:08;;;;;;;9.55;5.45;;;;;;;;;;4995645;28;20299;-76
2023/04/28 02:17:33;;;;;;;7.45;5.15;;;;;;;;;;4996661;28;20033;-76
2023/04/28 02:19:59;;;;;;;10.20;5.33;;;;;;;;;;4996931;28;20362;-76
2023/04/28 02:22:24;;;;;;;7.55;5.22;;;;;;;;;;4996533;28;20661;-76
2023/04/28 02:24:50;;;;;;;11.73;6.03;;;;;;;;;;4997203;28;20061;-76
2023/04/28 02:27:15;;;;;;;11.23;5.20;;;;;;;;;;5012199;28;20030;-77
2023/04/28 02:29:41;;;;;;;8.55;5.68;;;;;;;;;;4997892;28;20053;-76
2023/04/28 02:32:06;;;;;;;8.65;5.45;;;;;;;;;;5012495;28;20022;-76
2023/04/28 02:34:32;;;;;;;8.85;5.60;;;;;;;;;;4996973;28;20022;-77
2023/04/28 02:36:57;;;;;;;12.63;6.40;;;;;;;;;;4996916;28;20108;-77
2023/04/28 02:39:25;;;;;;;12.30;6.17;;;;;;;;;;4997022;28;20060;-75
2023/04/28 02:41:51;;;;;;;11.05;6.38;;;;;;;;;;4995568;28;20767;-77
2023/04/28 02:44:16;;;;;;;10.88;5.95;;;;;;;;;;4996728;28;20034;-76
2023/04/28 02:46:41;;;;;;;8.80;6.00;;;;;;;;;;4995843;28;20022;-76
2023/04/28 02:49:07;;;;;;;10.93;5.97;;;;;;;;;;4997182;28;20030;-76
2023/04/28 02:51:32;;;;;;;9.05;5.70;;;;;;;;;;4996721;28;20321;-77
2023/04/28 02:53:57;;;;;;;11.07;5.33;;;;;;;;;;4996690;28;20025;-76
2023/04/28 02:56:22;;;;;;;10.37;5.97;;;;;;;;;;4995634;28;20271;-75
2023/04/28 02:58:48;;;;;;;9.85;5.50;;;;;;;;;;4996025;28;20271;-76
2023/04/28 03:01:13;;;;;;;7.67;5.47;;;;;;;;;;4996319;28;20109;-76
2023/04/28 03:03:38;;;;;;;10.70;5.70;;;;;;;;;;4995529;28;20366;-76
2023/04/28 03:06:04;;;;;;;11.57;5.80;;;;;;;;;;4996517;28;20034;-75
2023/04/28 03:08:29;;;;;;;12.57;5.75;;;;;;;;;;4996573;28;20426;-75
2023/04/28 03:10:55;;;;;;;10.00;5.88;;;;;;;;;;4996489;28;20054;-76
2023/04/28 03:13:20;;;;;;;10.05;5.45;;;;;;;;;;4996550;28;20092;-76
2023/04/28 03:15:46;;;;;;;7.68;5.28;;;;;;;;;;4996798;28;20026;-76
2023/04/28 03:18:11;;;;;;;11.73;5.72;;;;;;;;;;4997371;28;20117;-76
2023/04/28 03:20:36;;;;;;;10.68;5.65;;;;;;;;;;4997082;28;20022;-76
2023/04/28 03:23:02;;;;;;;9.73;5.73;;;;;;;;;;4997259;28;20026;-76
2023/04/28 03:25:27;;;;;;;8.32;5.32;;;;;;;;;;4995643;28;20271;-76
2023/04/28 03:27:53;;;;;;;12.48;6.28;;;;;;;;;;4996682;28;20112;-76
2023/04/28 03:30:18;;;;;;;10.35;5.53;;;;;;;;;;4996450;28;20030;-76
2023/04/28 03:32:43;;;;;;;10.55;5.95;;;;;;;;;;4996486;28;20031;-76
2023/04/28 03:35:09;;;;;;;9.95;5.95;;;;;;;;;;4996479;28;20073;-75
2023/04/28 03:37:34;;;;;;;9.77;5.75;;;;;;;;;;4996542;28;20029;-77
2023/04/28 03:39:59;;;;;;;13.40;5.65;;;;;;;;;;4996140;28;20078;-77
2023/04/28 03:42:25;;;;;;;9.87;5.80;;;;;;;;;;4994626;28;20030;-76
2023/04/28 03:44:50;;;;;;;8.73;5.68;;;;;;;;;;4995739;28;20326;-76
2023/04/28 03:47:15;;;;;;;10.45;5.70;;;;;;;;;;4995862;28;20041;-76
2023/04/28 03:49:40;;;;;;;8.07;4.95;;;;;;;;;;4996084;28;20034;-76
2023/04/28 03:52:06;;;;;;;8.43;5.63;;;;;;;;;;4995678;28;20436;-76
2023/04/28 03:54:31;;;;;;;9.88;5.82;;;;;;;;;;4995004;28;20620;-76
2023/04/28 03:56:56;;;;;;;8.40;5.63;;;;;;;;;;4994943;28;20057;-77
2023/04/28 03:59:22;;;;;;;10.07;5.55;;;;;;;;;;5010081;28;20516;-76
2023/04/28 04:01:47;;;;;;;12.32;5.82;;;;;;;;;;4994846;28;20030;-75
2023/04/28 04:04:13;;;;;;;9.07;5.20;;;;;;;;;;4995091;28;20018;-75
2023/04/28 04:06:38;;;;;;;15.57;5.43;;;;;;;;;;4994592;28;20262;-75
2023/04/28 04:09:03;;;;;;;8.73;5.50;;;;;;;;;;4995043;28;20045;-75
2023/04/28 04:11:28;;;;;;;7.75;4.78;;;;;;;;;;4995226;28;20022;-76
2023/04/28 04:13:54;;;;;;;7.70;4.85;;;;;;;;;;5009573;28;20014;-75
2023/04/28 04:16:20;;;;;;;8.85;5.03;;;;;;;;;;4994372;28;20061;-75
2023/04/28 04:18:45;;;;;;;10.82;5.20;;;;;;;;;;4994476;28;20026;-75
2023/04/28 04:21:11;;;;;;;10.07;5.87;;;;;;;;;;4994351;28;20026;-75
2023/04/28 04:23:36;;;;;;;14.85;6.13;;;;;;;;;;4993018;28;20303;-76
2023/04/28 04:26:01;;;;;;;8.27;5.75;;;;;;;;;;4994279;28;20029;-76
2023/04/28 04:28:26;;;;;;;7.77;5.50;;;;;;;;;;4994204;28;20061;-76
2023/04/28 04:30:52;;;;;;;11.32;5.72;;;;;;;;;;4994188;28;20268;-76
2023/04/28 04:33:17;;;;;;;10.32;6.10;;;;;;;;;;4992861;28;20014;-76
2023/04/28 04:35:42;;;;;;;10.75;5.75;;;;;;;;;;5009159;28;20537;-76
2023/04/28 04:38:08;;;;;;;9.23;5.70;;;;;;;;;;4994445;28;20023;-75
2023/04/28 04:40:33;;;;;;;8.30;5.68;;;;;;;;;;4992793;28;20165;-75
2023/04/28 04:42:58;;;;;;;10.68;6.20;;;;;;;;;;5009351;28;20027;-76
2023/04/28 04:45:24;;;;;;;8.65;5.63;;;;;;;;;;5009030;28;20486;-76
2023/04/28 04:47:49;;;;;;;12.80;5.75;;;;;;;;;;4994072;28;20033;-75
2023/04/28 04:50:14;;;;;;;12.55;6.05;;;;;;;;;;4994086;28;20498;-76
2023/04/28 04:52:39;;;;;;;13.68;5.82;;;;;;;;;;4994885;28;20023;-76
2023/04/28 04:55:06;;;;;;;9.30;5.40;;;;;;;;;;4995269;28;20038;-75
2023/04/28 04:57:31;;;;;;;12.07;5.57;;;;;;;;;;4995248;28;20270;-76
2023/04/28 04:59:56;;;;;;;9.65;5.60;;;;;;;;;;4995168;28;20030;-76
2023/04/28 05:02:21;;;;;;;11.67;5.90;;;;;;;;;;5009408;28;20037;-76
2023/04/28 05:04:47;;;;;;;9.15;5.68;;;;;;;;;;5009540;28;20335;-76
2023/04/28 05:07:12;;;;;;;11.35;5.60;;;;;;;;;;4994691;28;20022;-75
2023/04/28 05:09:37;;;;;;;8.82;5.80;;;;;;;;;;4995162;28;20061;-77
2023/04/28 05:12:03;;;;;;;11.63;5.75;;;;;;;;;;4993440;28;20018;-76
2023/04/28 05:14:28;;;;;;;15.32;5.63;;;;;;;;;;5009973;28;20046;-76
2023/04/28 05:16:53;;;;;;;10.88;5.78;;;;;;;;;;4993983;28;20057;-76
2023/04/28 05:19:19;;;;;;;13.20;6.20;;;;;;;;;;4994004;28;20037;-76
2023/04/28 05:21:46;;;;;;;15.93;6.15;;;;;;;;;;5009004;28;20033;-76
2023/04/28 05:24:11;;;;;;;12.73;6.05;;;;;;;;;;4993740;28;20026;-76
2023/04/28 05:26:37;;;;;;;11.48;5.82;;;;;;;;;;5008803;28;20034;-76
2023/04/28 05:29:02;;;;;;;11.10;6.20;;;;;;;;;;4992623;28;20018;-76
2023/04/28 05:31:28;;;;;;;11.45;6.15;;;;;;;;;;4993990;28;20262;-76
2023/04/28 05:33:53;;;;;;;12.98;6.03;;;;;;;;;;4992690;28;20069;-76
2023/04/28 05:36:18;;;;;;;12.20;5.30;;;;;;;;;;4993875;28;20033;-76
2023/04/28 05:38:43;;;;;;;11.18;4.68;;;;;;;;;;4992454;28;20299;-76
2023/04/28 05:41:09;;;;;;;6.28;4.18;;;;;;;;;;4993654;28;20030;-76
2023/04/28 05:43:34;;;;;;;12.52;4.43;;;;;;;;;;4993582;28;20474;-76
2023/04/28 05:46:00;;;;;;;7.32;4.22;;;;;;;;;;4992017;28;20026;-76
2023/04/28 05:48:25;;;;;;;14.10;4.20;;;;;;;;;;4993287;28;20062;-76
2023/04/28 05:50:50;;;;;;;9.02;4.63;;;;;;;;;;4993479;28;20548;-76
2023/04/28 05:53:16;;;;;;;10.47;4.40;;;;;;;;;;4993398;28;20025;-76
2023/04/28 05:55:41;;;;;;;8.77;4.13;;;;;;;;;;4993715;28;20272;-76
2023/04/28 05:58:06;;;;;;;7.30;4.28;;;;;;;;;;5008395;28;20303;-77
2023/04/28 06:00:33;;;;;;;10.68;4.47;;;;;;;;;;4993484;28;20060;-76
2023/04/28 06:02:58;;;;;;;12.50;4.18;;;;;;;;;;4993883;28;20026;-77
2023/04/28 06:05:23;;;;;;;9.53;4.37;;;;;;;;;;4991836;28;20161;-75
2023/04/28 06:07:48;;;;;;;9.45;4.43;;;;;;;;;;4993302;28;20292;-76
2023/04/28 06:10:14;;;;;;;7.70;4.20;;;;;;;;;;4996597;28;20026;-75
2023/04/28 06:12:39;;;;;;;7.40;3.97;;;;;;;;;;4996978;28;20097;-76
2023/04/28 06:15:05;;;;;;;12.73;3.58;;;;;;;;;;4997443;28;20045;-76
2023/04/28 06:17:32;;;;;;;13.40;3.97;;;;;;;;;;4996773;28;20042;-76
2023/04/28 06:19:58;;;;;;;8.25;3.75;;;;;;;;;;4997237;28;20022;-76
2023/04/28 06:22:23;;;;;;;9.70;4.38;;;;;;;;;;4996414;28;20392;-76
2023/04/28 06:24:49;;;;;;;12.85;4.28;;;;;;;;;;4997574;28;20036;-76
2023/04/28 06:27:14;;;;;;;8.57;4.27;;;;;;;;;;4997435;28;20529;-76
2023/04/28 06:29:39;;;;;;;9.18;4.40;;;;;;;;;;4995587;28;20755;-76
2023/04/28 06:32:05;;;;;;;10.43;4.28;;;;;;;;;;4996593;28;20034;-75
2023/04/28 06:34:30;;;;;;;8.15;4.10;;;;;;;;;;4996408;28;20433;-76
2023/04/28 06:36:57;;;;;;;14.53;4.37;;;;;;;;;;4996385;28;20030;-76
2023/04/28 06:39:22;;;;;;;7.93;4.20;;;;;;;;;;5011293;28;20268;-76
2023/04/28 06:41:48;;;;;;;7.33;4.10;;;;;;;;;;4996511;28;20072;-76
2023/04/28 06:44:13;;;;;;;8.25;4.00;;;;;;;;;;4996427;28;20307;-76
2023/04/28 06:46:38;;;;;;;15.00;4.30;;;;;;;;;;4996406;28;20029;-76
2023/04/28 06:49:03;;;;;;;7.53;3.57;;;;;;;;;;4996333;28;20479;-76
2023/04/28 06:51:31;;;;;;;7.63;3.88;;;;;;;;;;4996265;28;20320;-76
2023/04/28 06:53:57;;;;;;;11.90;3.95;;;;;;;;;;4994930;28;20029;-76
2023/04/28 06:56:22;;;;;;;11.00;3.60;;;;;;;;;;4996460;28;20022;-77
2023/04/28 06:58:47;;;;;;;8.27;4.03;;;;;;;;;;4997426;28;20063;-78
2023/04/28 07:01:13;;;;;;;5.68;2.92;;;;;;;;;;4996822;28;20476;-76
2023/04/28 07:03:38;;;;;;;7.20;3.97;;;;;;;;;;5011450;28;20502;-76
2023/04/28 07:06:04;;;;;;;8.10;3.77;;;;;;;;;;4995001;28;20624;-75
2023/04/28 07:08:29;;;;;;;9.35;4.13;;;;;;;;;;4996777;28;20283;-76
2023/04/28 07:10:54;;;;;;;12.93;4.00;;;;;;;;;;4996406;28;20050;-75
2023/04/28 07:13:20;;;;;;;11.85;4.28;;;;;;;;;;4996283;28;20026;-76
2023/04/28 07:15:45;;;;;;;10.20;4.17;;;;;;;;;;4996267;28;20485;-76
2023/04/28 07:18:10;;;;;;;9.18;4.25;;;;;;;;;;4996175;28;20613;-76
2023/04/28 07:20:36;;;;;;;9.85;3.95;;;;;;;;;;5010317;28;20030;-76
2023/04/28 07:23:01;;;;;;;9.00;4.00;;;;;;;;;;4994686;28;20026;-77
2023/04/28 07:25:26;;;;;;;8.03;3.73;;;;;;;;;;4995948;28;20260;-76
2023/04/28 07:27:53;;;;;;;6.72;3.60;;;;;;;;;;4995297;28;20339;-77
2023/04/28 07:30:18;;;;;;;7.22;3.67;;;;;;;;;;4996782;28;20022;-76
2023/04/28 07:32:43;;;;;;;6.60;3.83;;;;;;;;;;4995111;28;20027;-76
2023/04/28 07:35:08;;;;;;;7.43;3.15;;;;;;;;;;4995297;28;20026;-76
2023/04/28 07:37:34;;;;;;;7.78;3.78;;;;;;;;;;4995024;28;20030;-76
2023/04/28 07:40:00;;;;;;;7.72;3.90;;;;;;;;;;4995245;28;20311;-76
2023/04/28 07:42:26;;;;;;;9.10;3.80;;;;;;;;;;4995210;28;20033;-78
2023/04/28 07:44:51;;;;;;;9.20;4.07;;;;;;;;;;4996196;28;20113;-78
2023/04/28 07:47:16;;;;;;;6.88;3.60;;;;;;;;;;4997382;28;20022;-78
2023/04/28 07:49:42;;;;;;;6.78;3.55;;;;;;;;;;5000463;28;20092;-76
2023/04/28 07:52:08;;;;;;;7.78;3.60;;;;;;;;;;4995678;28;20022;-78
2023/04/28 07:54:34;;;;;;;6.95;3.55;;;;;;;;;;4996622;28;20109;-77
2023/04/28 07:56:59;;;;;;;6.10;3.40;;;;;;;;;;4997985;28;20450;-78
2023/04/28 07:59:25;;;;;;;7.45;3.70;;;;;;;;;;4995582;28;20022;-77
2023/04/28 08:01:50;;;;;;;6.22;3.42;;;;;;;;;;4994914;28;20032;-77
2023/04/28 08:04:16;;;;;;;6.63;3.25;;;;;;;;;;4994656;28;20030;-77
2023/04/28 08:06:41;;;;;;;6.13;2.97;;;;;;;;;;4994259;28;20084;-76
2023/04/28 08:09:06;;;;;;;9.40;3.47;;;;;;;;;;4994674;28;20363;-77
2023/04/28 08:11:32;;;;;;;5.47;3.33;;;;;;;;;;4994892;28;20426;-78
2023/04/28 08:14:00;;;;;;;7.60;3.53;;;;;;;;;;5009824;28;20490;-77
2023/04/28 08:16:26;;;;;;;8.25;3.20;;;;;;;;;;4994156;28;20462;-77
2023/04/28 08:18:52;;;;;;;6.60;3.65;;;;;;;;;;4995419;28;20054;-77
2023/04/28 08:21:17;;;;;;;7.10;3.17;;;;;;;;;;5009679;28;20022;-76
2023/04/28 08:23:43;;;;;;;7.53;3.70;;;;;;;;;;4994238;28;20302;-77
2023/04/28 08:26:08;;;;;;;9.33;3.47;;;;;;;;;;4994342;28;20339;-77
2023/04/28 08:28:33;;;;;;;10.47;3.67;;;;;;;;;;5009503;28;20319;-77
2023/04/28 08:30:59;;;;;;;6.25;3.72;;;;;;;;;;4993964;28;20256;-76
2023/04/28 08:33:25;;;;;;;7.68;3.65;;;;;;;;;;4993009;28;20072;-77
2023/04/28 08:35:50;;;;;;;5.90;3.50;;;;;;;;;;4994612;28;20022;-78
2023/04/28 08:38:16;;;;;;;6.93;3.42;;;;;;;;;;4994827;28;20122;-77
2023/04/28 08:40:42;;;;;;;7.50;3.55;;;;;;;;;;4994594;28;20033;-77
2023/04/28 08:43:09;;;;;;;6.03;3.47;;;;;;;;;;5009565;28;20027;-77
2023/04/28 08:45:41;;;;;;;7.70;3.40;;;;;;;;;;4993680;28;20030;-77
2023/04/28 08:48:16;;;;;;;7.97;3.35;;;;;;;;;;4993799;28;20049;-77
2023/04/28 08:50:43;;;;;;;6.25;3.22;;;;;;;;;;4992842;28;20042;-77
2023/04/28 08:53:11;;;;;;;6.72;3.22;;;;;;;;;;4993960;28;20500;-77
2023/04/28 08:55:37;;;;;;;5.72;2.75;;;;;;;;;;4994013;28;20105;-78
2023/04/28 08:58:03;;;;;;;9.55;3.80;;;;;;;;;;4994699;28;20508;-77
2023/04/28 09:00:29;;;;;;;8.27;3.50;;;;;;;;;;4993993;28;20034;-77
2023/04/28 09:02:54;;;;;;;7.80;3.30;;;;;;;;;;5008816;28;20409;-77
2023/04/28 09:05:19;;;;;;;6.63;3.17;;;;;;;;;;4994163;28;20669;-77
2023/04/28 09:07:45;;;;;;;6.55;3.17;;;;;;;;;;4994104;28;20612;-78
2023/04/28 09:10:16;;;;;;;7.43;3.17;;;;;;;;;;5009203;28;20050;-76
2023/04/28 09:12:41;;;;;;;9.82;2.90;;;;;;;;;;4994116;28;20041;-77
2023/04/28 09:15:08;;;;;;;7.83;3.10;;;;;;;;;;4993930;28;20096;-77
2023/04/28 09:17:51;;;;;;;5.00;2.88;;;;;;;;;;4993512;28;20617;-77
2023/04/28 09:20:23;;;;;;;8.00;2.97;;;;;;;;;;4993988;28;20027;-76
2023/04/28 09:22:50;;;;;;;5.57;2.72;;;;;;;;;;4993733;28;20026;-77
2023/04/28 09:25:16;;;;;;;7.47;3.28;;;;;;;;;;4993705;28;20033;-77
2023/04/28 09:27:41;;;;;;;4.32;2.80;;;;;;;;;;4994616;28;20374;-77
2023/04/28 09:30:08;;;;;;;8.53;4.47;;;;;;;;;;4993958;28;20022;-77
2023/04/28 09:32:34;;;;;;;10.77;3.65;;;;;;;;;;4993137;28;20260;-76
2023/04/28 09:35:00;;;;;;;9.32;3.50;;;;;;;;;;4994055;28;20395;-77
2023/04/28 09:37:29;;;;;;;10.18;4.18;;;;;;;;;;4993799;28;20027;-77
2023/04/28 09:39:54;;;;;;;5.22;2.83;;;;;;;;;;4993684;28;20090;-76
2023/04/28 09:42:40;;;;;;;4.88;2.75;;;;;;;;;;4993151;28;20033;-76
2023/04/28 09:45:10;;;;;;;5.22;2.58;;;;;;;;;;4996923;28;20030;-76
2023/04/28 09:47:37;;;;;;;5.72;2.60;;;;;;;;;;4997400;28;20486;-77
2023/04/28 09:50:10;;;;;;;5.97;3.00;;;;;;;;;;4998199;28;20030;-77
2023/04/28 09:52:35;;;;;;;7.78;2.90;;;;;;;;;;4997655;28;20022;-76
2023/04/28 09:55:03;;;;;;;6.22;2.85;;;;;;;;;;4995833;28;20623;-77
2023/04/28 09:57:33;;;;;;;4.72;2.97;;;;;;;;;;4997050;28;20033;-77
2023/04/28 09:59:58;;;;;;;5.43;2.60;;;;;;;;;;4997883;28;20424;-78
2023/04/28 10:02:25;;;;;;;5.68;2.30;;;;;;;;;;4998689;28;20113;-77
2023/04/28 10:04:50;;;;;;;5.38;2.70;;;;;;;;;;4997369;28;20568;-79
2023/04/28 10:07:18;;;;;;;4.93;2.60;;;;;;;;;;4996800;28;20026;-78
2023/04/28 10:09:46;;;;;;;8.00;3.08;;;;;;;;;;4997401;28;20113;-78
2023/04/28 10:12:13;;;;;;;5.55;2.47;;;;;;;;;;4997630;28;20507;-78
2023/04/28 10:14:41;;;;;;;5.90;2.47;;;;;;;;;;5013192;28;20026;-78
2023/04/28 10:17:07;;;;;;;5.70;2.22;;;;;;;;;;4997546;28;20041;-79
2023/04/28 10:19:36;;;;;;;7.18;2.30;;;;;;;;;;5012389;28;20505;-77
2023/04/28 10:22:34;;;;;;;7.90;2.60;;;;;;;;;;4996003;28;20018;-78
2023/04/28 10:25:12;;;;;;;6.15;2.60;;;;;;;;;;4996584;28;20030;-80
2023/04/28 10:27:42;;;;;;;5.53;2.60;;;;;;;;;;4997272;28;20018;-78
2023/04/28 10:30:11;;;;;;;6.35;2.45;;;;;;;;;;4996091;28;20129;-78
2023/04/28 10:32:36;;;;;;;4.93;2.50;;;;;;;;;;5012267;28;20041;-78
2023/04/28 10:35:20;;;;;;;6.78;2.60;;;;;;;;;;4997048;28;20497;-78
2023/04/28 10:38:05;;;;;;;5.85;2.40;;;;;;;;;;4996707;28;20030;-77
2023/04/28 10:40:35;;;;;;;4.72;2.58;;;;;;;;;;4997051;28;20057;-77
2023/04/28 10:43:01;;;;;;;4.85;2.70;;;;;;;;;;4996758;28;20022;-79
2023/04/28 10:45:52;;;;;;;7.03;2.60;;;;;;;;;;4995652;28;20022;-78
2023/04/28 10:48:29;;;;;;;11.52;3.05;;;;;;;;;;4997159;28;20102;-77
2023/04/28 10:51:08;;;;;;;11.20;3.20;;;;;;;;;;4996472;28;20018;-79
2023/04/28 10:53:45;;;;;;;7.43;2.95;;;;;;;;;;4997344;28;20029;-78
2023/04/28 10:56:19;;;;;;;7.97;3.38;;;;;;;;;;4997566;28;20022;-78
2023/04/28 10:58:46;;;;;;;8.75;3.50;;;;;;;;;;4997889;28;20061;-78
2023/04/28 11:01:17;;;;;;;10.82;3.90;;;;;;;;;;4997657;28;20026;-78
2023/04/28 11:06:33;;;;;;;9.93;4.40;;;;;;;;;;4996757;28;20080;-79
2023/04/28 11:09:01;;;;;;;9.35;4.65;;;;;;;;;;4997131;28;20050;-79
2023/04/28 11:11:30;;;;;;;7.40;4.20;;;;;;;;;;4997247;28;20421;-79
2023/04/28 11:14:18;;;;;;;7.22;4.63;;;;;;;;;;4997126;28;20018;-79
2023/04/28 11:17:01;;;;;;;10.75;4.93;;;;;;;;;;5011961;28;20054;-79
2023/04/28 11:19:32;;;;;;;9.75;5.80;;;;;;;;;;4997363;28;20097;-79
2023/04/28 11:22:00;;;;;;;11.68;5.43;;;;;;;;;;4996320;28;20069;-79
2023/04/28 11:24:28;;;;;;;9.48;5.07;;;;;;;;;;4997015;28;20085;-78
2023/04/28 11:26:53;;;;;;;10.70;6.18;;;;;;;;;;4997345;28;20054;-78
2023/04/28 11:29:30;;;;;;;13.30;6.88;;;;;;;;;;4996801;28;20053;-79
2023/04/28 11:31:56;;;;;;;13.00;6.38;;;;;;;;;;4997388;28;20030;-79
2023/04/28 11:34:23;;;;;;;15.17;6.63;;;;;;;;;;4995561;28;20555;-79
2023/04/28 11:36:48;;;;;;;10.50;5.80;;;;;;;;;;4996679;28;20747;-79
2023/04/28 11:39:14;;;;;;;9.20;5.27;;;;;;;;;;4994715;28;20029;-78
2023/04/28 11:41:41;;;;;;;12.55;5.30;;;;;;;;;;4996072;28;20256;-78
2023/04/28 11:44:14;;;;;;;12.30;5.57;;;;;;;;;;4995499;28;20040;-77
2023/04/28 11:46:54;;;;;;;9.18;5.32;;;;;;;;;;4995195;28;20030;-77
2023/04/28 11:49:20;;;;;;;11.05;5.50;;;;;;;;;;4995771;28;20030;-77
2023/04/28 11:51:48;;;;;;;9.45;5.55;;;;;;;;;;4995463;28;20030;-77
2023/04/28 11:54:20;;;;;;;9.35;5.57;;;;;;;;;;4995614;28;20398;-77
2023/04/28 11:56:45;;;;;;;11.55;5.53;;;;;;;;;;4996603;28;20026;-78
2023/04/28 11:59:11;;;;;;;12.00;5.65;;;;;;;;;;4996987;28;20032;-77
2023/04/28 12:01:48;;;;;;;10.10;4.75;;;;;;;;;;4996487;28;20022;-78
2023/04/28 12:04:25;;;;;;;11.70;4.90;;;;;;;;;;4994584;28;20109;-78
2023/04/28 12:06:58;;;;;;;12.02;4.95;;;;;;;;;;4995571;28;20037;-78
2023/04/28 12:09:24;;;;;;;8.80;4.20;;;;;;;;;;4996139;28;20500;-78
2023/04/28 12:11:54;;;;;;;9.50;4.95;;;;;;;;;;4996463;28;20280;-78
2023/04/28 12:14:20;;;;;;;13.25;4.07;;;;;;;;;;4995097;28;20023;-78
2023/04/28 12:16:45;;;;;;;7.82;4.20;;;;;;;;;;4994686;28;20038;-78
2023/04/28 12:19:11;;;;;;;6.40;3.40;;;;;;;;;;4994934;28;20027;-77
2023/04/28 12:21:38;;;;;;;6.65;3.40;;;;;;;;;;4994777;28;20065;-77
2023/04/28 12:24:18;;;;;;;6.53;3.60;;;;;;;;;;4994455;28;20536;-77
2023/04/28 12:26:43;;;;;;;8.75;4.43;;;;;;;;;;4994524;28;20030;-77
2023/04/28 12:29:09;;;;;;;10.90;4.03;;;;;;;;;;4995664;28;20018;-78
2023/04/28 12:31:53;;;;;;;8.07;4.30;;;;;;;;;;4995863;28;20109;-78
2023/04/28 12:34:18;;;;;;;8.63;4.45;;;;;;;;;;4994352;28;20018;-78
2023/04/28 12:36:45;;;;;;;9.02;4.68;;;;;;;;;;4992871;28;20030;-77
2023/04/28 12:39:15;;;;;;;10.00;5.15;;;;;;;;;;4994817;28;20026;-78
2023/04/28 12:41:40;;;;;;;10.02;5.70;;;;;;;;;;4994517;28;20025;-78
2023/04/28 12:44:06;;;;;;;10.43;5.05;;;;;;;;;;4994208;28;20026;-79
2023/04/28 12:46:32;;;;;;;9.55;5.10;;;;;;;;;;4994978;28;20053;-79
2023/04/28 12:48:57;;;;;;;10.48;5.45;;;;;;;;;;4995730;28;20053;-79
2023/04/28 12:51:23;;;;;;;8.98;5.85;;;;;;;;;;4995884;28;20028;-79
2023/04/28 12:53:48;;;;;;;12.23;6.18;;;;;;;;;;4994195;28;20023;-79
2023/04/28 12:56:13;;;;;;;10.82;5.88;;;;;;;;;;4995251;28;20474;-78
2023/04/28 12:58:38;;;;;;;13.70;6.03;;;;;;;;;;4994436;28;20030;-77
2023/04/28 13:01:04;;;;;;;18.23;6.70;;;;;;;;;;4994720;28;20344;-77
2023/04/28 13:03:29;;;;;;;12.13;6.47;;;;;;;;;;4994263;28;20327;-78
2023/04/28 13:05:54;;;;;;;10.75;5.82;;;;;;;;;;4995482;28;20037;-78
2023/04/28 13:08:20;;;;;;;13.67;6.40;;;;;;;;;;4994963;28;20022;-78
2023/04/28 13:10:45;;;;;;;10.48;6.28;;;;;;;;;;4994946;28;20255;-78
2023/04/28 13:13:11;;;;;;;13.10;6.95;;;;;;;;;;4994166;28;20088;-77
2023/04/28 13:15:36;;;;;;;9.88;6.18;;;;;;;;;;4994324;28;20030;-78
2023/04/28 13:18:02;;;;;;;11.07;6.65;;;;;;;;;;5011746;28;20037;-78
2023/04/28 13:20:27;;;;;;;10.68;6.13;;;;;;;;;;4997332;28;20037;-78
2023/04/28 13:22:52;;;;;;;11.70;6.70;;;;;;;;;;4999241;28;20065;-78
2023/04/28 13:25:17;;;;;;;14.63;6.23;;;;;;;;;;4998550;28;20259;-78
2023/04/28 13:27:43;;;;;;;10.50;6.37;;;;;;;;;;4999365;28;20256;-78
2023/04/28 13:30:09;;;;;;;9.00;6.40;;;;;;;;;;4998556;28;20267;-78
2023/04/28 13:32:34;;;;;;;13.65;7.10;;;;;;;;;;4998712;28;20339;-78
2023/04/28 13:34:59;;;;;;;9.85;6.43;;;;;;;;;;4998361;28;20045;-77
2023/04/28 13:37:25;;;;;;;10.03;6.93;;;;;;;;;;4998679;28;20536;-78
2023/04/28 13:39:50;;;;;;;13.52;6.80;;;;;;;;;;4998750;28;20739;-78
2023/04/28 13:42:15;;;;;;;14.73;6.25;;;;;;;;;;4998105;28;20034;-77
2023/04/28 13:44:40;;;;;;;8.90;5.35;;;;;;;;;;4998314;28;20029;-78
2023/04/28 13:47:08;;;;;;;13.60;6.40;;;;;;;;;;4998333;28;20026;-78
2023/04/28 13:49:33;;;;;;;11.68;6.78;;;;;;;;;;4996806;28;20267;-78
2023/04/28 13:51:59;;;;;;;11.47;6.63;;;;;;;;;;4998034;28;20081;-78
2023/04/28 13:54:24;;;;;;;11.02;6.40;;;;;;;;;;4997347;28;20259;-78
2023/04/28 13:56:49;;;;;;;12.73;6.97;;;;;;;;;;4997153;28;20046;-77
2023/04/28 13:59:14;;;;;;;12.20;7.10;;;;;;;;;;4997342;28;20279;-78
2023/04/28 14:01:40;;;;;;;11.40;6.97;;;;;;;;;;4997192;28;20049;-78
2023/04/28 14:04:05;;;;;;;9.82;6.07;;;;;;;;;;4997088;28;20029;-78
2023/04/28 14:06:31;;;;;;;12.23;6.10;;;;;;;;;;4996871;28;20026;-77
2023/04/28 14:08:57;;;;;;;9.38;5.70;;;;;;;;;;4997104;28;20038;-78
2023/04/28 14:11:22;;;;;;;13.40;6.35;;;;;;;;;;4996992;28;20031;-77
2023/04/28 14:13:47;;;;;;;8.63;5.93;;;;;;;;;;4996836;28;20041;-77
2023/04/28 14:16:13;;;;;;;10.77;5.87;;;;;;;;;;4996782;28;20030;-78
2023/04/28 14:18:38;;;;;;;14.18;6.00;;;;;;;;;;4998282;28;20262;-79
2023/04/28 14:21:06;;;;;;;9.75;5.60;;;;;;;;;;4997928;28;20121;-78
2023/04/28 14:23:32;;;;;;;14.75;5.95;;;;;;;;;;4997654;28;20529;-78
2023/04/28 14:25:57;;;;;;;10.25;5.90;;;;;;;;;;5012491;28;20084;-78
2023/04/28 14:28:23;;;;;;;11.82;5.60;;;;;;;;;;4997672;28;20026;-78
2023/04/28 14:30:48;;;;;;;11.90;5.95;;;;;;;;;;4997059;28;20030;-77
2023/04/28 14:33:14;;;;;;;10.82;5.68;;;;;;;;;;4997398;28;20478;-79
2023/04/28 14:35:40;;;;;;;10.68;5.43;;;;;;;;;;4997612;28;20128;-78
2023/04/28 14:38:05;;;;;;;8.95;5.47;;;;;;;;;;4996315;28;20023;-78